Time,TemperatureF,DewpointF,PressureIn,WindDirection,WindDirectionDegrees,WindSpeedMPH,WindSpeedGustMPH,Humidity,HourlyPrecipIn,Conditions,Clouds,dailyrainin,SolarRadiationWatts/m^2,SoftwareType,DateUTC
2013-12-21 00:02:00,15.7,12.5,29.92,ENE,74,0.0,0.0,87,0.00,RA,,0.00,0.0,WeatherDisplay:10.37,2013-12-21 06:02:00,
2013-12-21 00:07:00,15.3,12.1,29.92,ENE,74,0.0,0.0,87,0.00,RA,,0.00,0.0,WeatherDisplay:10.37,2013-12-21 06:07:00,
2013-12-21 00:12:00,15.0,11.8,29.92,ENE,74,0.0,0.0,87,0.00,RA,,0.00,0.0,WeatherDisplay:10.37,2013-12-21 06:12:00,
2013-12-21 00:17:00,14.6,11.4,29.92,ENE,74,0.0,0.0,87,0.00,OVC,,0.00,0.0,WeatherDisplay:10.37,2013-12-21 06:17:00,
2013-12-21 00:22:00,14.3,11.1,29.92,ENE,74,0.0,0.0,87,0.00,OVC,,0.00,0.0,WeatherDisplay:10.37,2013-12-21 06:22:00,
2013-12-21 00:27:00,13.9,10.7,29.92,ENE,74,0.0,0.0,87,0.00,OVC,,0.00,0.0,WeatherDisplay:10.37,2013-12-21 06:27:00,
2013-12-21 00:32:00,13.6,10.5,29.91,ENE,74,0.0,0.0,87,0.00,OVC,,0.00,0.0,WeatherDisplay:10.37,2013-12-21 06:32:00,
2013-12-21 00:33:00,13.6,10.5,29.91,ENE,74,0.0,0.0,87,0.00,OVC,,0.00,0.0,WeatherDisplay:10.37,2013-12-21 06:33:00,
2013-12-21 00:38:00,13.4,10.5,29.92,ENE,74,0.0,0.0,88,0.00,OVC,,0.00,0.0,WeatherDisplay:10.37,2013-12-21 06:38:00,
2013-12-21 00:43:00,13.4,10.5,29.91,ENE,74,0.0,0.0,88,0.00,OVC,,0.00,0.0,WeatherDisplay:10.37,2013-12-21 06:43:00,
2013-12-21 00:48:00,13.4,10.5,29.91,ENE,74,0.0,0.0,88,0.00,OVC,,0.00,0.0,WeatherDisplay:10.37,2013-12-21 06:48:00,
2013-12-21 00:53:00,13.2,10.3,29.92,ENE,74,0.0,0.0,88,0.00,OVC,,0.00,0.0,WeatherDisplay:10.37,2013-12-21 06:53:00,
2013-12-21 00:58:00,13.0,10.1,29.92,ENE,74,0.0,0.0,88,0.00,OVC,,0.00,0.0,WeatherDisplay:10.37,2013-12-21 06:58:00,
2013-12-21 01:03:00,12.7,9.8,29.92,ENE,74,0.0,0.0,88,0.00,OVC,,0.00,0.0,WeatherDisplay:10.37,2013-12-21 07:03:00,
2013-12-21 01:08:00,12.6,9.7,29.93,ENE,74,0.0,0.0,88,0.00,OVC,,0.00,0.0,WeatherDisplay:10.37,2013-12-21 07:08:00,
2013-12-21 01:13:00,12.6,9.7,29.93,ENE,74,0.0,0.0,88,0.00,OVC,,0.00,0.0,WeatherDisplay:10.37,2013-12-21 07:13:00,
2013-12-21 01:18:00,12.6,9.7,29.93,ENE,74,0.0,0.0,88,0.00,OVC,,0.00,0.0,WeatherDisplay:10.37,2013-12-21 07:18:00,
2013-12-21 01:23:00,12.4,9.5,29.93,ENE,74,0.0,0.0,88,0.00,OVC,,0.00,0.0,WeatherDisplay:10.37,2013-12-21 07:23:00,
2013-12-21 01:28:00,12.4,9.5,29.93,ENE,74,0.0,0.0,88,0.00,OVC,,0.00,0.0,WeatherDisplay:10.37,2013-12-21 07:28:00,
2013-12-21 01:33:00,12.6,10.0,29.93,ENE,74,0.0,0.0,89,0.00,OVC,,0.00,0.0,WeatherDisplay:10.37,2013-12-21 07:33:00,
2013-12-21 01:38:00,12.8,10.2,29.94,ENE,74,0.0,0.0,89,0.00,OVC,,0.00,0.0,WeatherDisplay:10.37,2013-12-21 07:38:00,
2013-12-21 01:43:00,12.9,10.3,29.94,ENE,74,0.0,0.0,89,0.00,OVC,,0.00,0.0,WeatherDisplay:10.37,2013-12-21 07:43:00,
2013-12-21 01:48:00,13.0,10.4,29.94,ENE,74,0.0,0.0,89,0.00,OVC,,0.00,0.0,WeatherDisplay:10.37,2013-12-21 07:48:00,
2013-12-21 01:53:00,13.0,10.4,29.94,ENE,74,0.0,0.0,89,0.00,OVC,,0.00,0.0,WeatherDisplay:10.37,2013-12-21 07:53:00,
2013-12-21 01:58:00,13.1,10.5,29.94,ENE,74,0.0,0.0,89,0.00,OVC,,0.00,0.0,WeatherDisplay:10.37,2013-12-21 07:58:00,
2013-12-21 02:03:00,13.2,10.6,29.93,ENE,74,0.0,0.0,89,0.00,OVC,,0.00,0.0,WeatherDisplay:10.37,2013-12-21 08:03:00,
2013-12-21 02:08:00,13.3,10.7,29.93,ENE,74,0.0,0.0,89,0.00,OVC,,0.00,0.0,WeatherDisplay:10.37,2013-12-21 08:08:00,
2013-12-21 02:13:00,13.4,10.8,29.94,ENE,74,0.0,0.0,89,0.00,OVC,,0.00,0.0,WeatherDisplay:10.37,2013-12-21 08:13:00,
2013-12-21 02:18:00,13.5,10.9,29.94,ENE,74,0.0,0.0,89,0.00,OVC,,0.00,0.0,WeatherDisplay:10.37,2013-12-21 08:18:00,
2013-12-21 02:23:00,13.6,11.0,29.94,ENE,74,0.0,0.0,89,0.00,OVC,,0.00,0.0,WeatherDisplay:10.37,2013-12-21 08:23:00,
2013-12-21 02:28:00,13.7,11.1,29.94,ENE,74,0.0,0.0,89,0.00,OVC,,0.00,0.0,WeatherDisplay:10.37,2013-12-21 08:28:00,
2013-12-21 02:33:00,13.9,11.3,29.94,ENE,74,0.0,0.0,89,0.00,OVC,,0.00,0.0,WeatherDisplay:10.37,2013-12-21 08:33:00,
2013-12-21 02:38:00,13.9,11.3,29.94,ENE,74,0.0,0.0,89,0.00,OVC,,0.00,0.0,WeatherDisplay:10.37,2013-12-21 08:38:00,
2013-12-21 02:43:00,14.0,11.4,29.95,ENE,74,0.0,0.0,89,0.00,OVC,,0.00,0.0,WeatherDisplay:10.37,2013-12-21 08:43:00,
2013-12-21 02:48:00,14.0,11.4,29.95,ENE,74,0.0,0.0,89,0.00,OVC,,0.00,0.0,WeatherDisplay:10.37,2013-12-21 08:48:00,
2013-12-21 02:53:00,14.1,11.5,29.96,ENE,74,0.0,0.0,89,0.00,OVC,,0.00,0.0,WeatherDisplay:10.37,2013-12-21 08:53:00,
2013-12-21 02:58:00,14.2,11.6,29.95,ENE,74,0.0,0.0,89,0.00,OVC,,0.00,0.0,WeatherDisplay:10.37,2013-12-21 08:58:00,
2013-12-21 03:03:00,14.2,11.3,29.96,ENE,74,0.0,0.0,88,0.00,OVC,,0.00,0.0,WeatherDisplay:10.37,2013-12-21 09:03:00,
2013-12-21 03:08:00,14.2,11.6,29.96,ENE,74,0.0,0.0,89,0.00,OVC,,0.00,0.0,WeatherDisplay:10.37,2013-12-21 09:08:00,
2013-12-21 03:13:00,14.3,11.7,29.96,ENE,74,0.0,0.0,89,0.00,OVC,,0.00,0.0,WeatherDisplay:10.37,2013-12-21 09:13:00,
2013-12-21 03:18:00,14.3,11.7,29.95,ENE,74,0.0,0.0,89,0.00,OVC,,0.00,0.0,WeatherDisplay:10.37,2013-12-21 09:18:00,
2013-12-21 03:23:00,14.4,11.8,29.95,ENE,74,0.0,0.0,89,0.00,OVC,,0.00,0.0,WeatherDisplay:10.37,2013-12-21 09:23:00,
2013-12-21 03:28:00,14.5,11.9,29.95,ENE,74,0.0,0.0,89,0.00,OVC,,0.00,0.0,WeatherDisplay:10.37,2013-12-21 09:28:00,
2013-12-21 03:33:00,14.5,11.9,29.95,ENE,74,0.0,0.0,89,0.00,OVC,,0.00,0.0,WeatherDisplay:10.37,2013-12-21 09:33:00,
2013-12-21 03:38:00,14.6,11.9,29.94,ENE,74,0.0,0.0,89,0.00,OVC,,0.00,0.0,WeatherDisplay:10.37,2013-12-21 09:38:00,
2013-12-21 03:43:00,14.7,12.0,29.95,ENE,74,0.0,0.0,89,0.00,OVC,,0.00,0.0,WeatherDisplay:10.37,2013-12-21 09:43:00,
2013-12-21 03:48:00,14.7,12.0,29.95,ENE,74,0.0,0.0,89,0.00,OVC,,0.00,0.0,WeatherDisplay:10.37,2013-12-21 09:48:00,
2013-12-21 03:53:00,14.7,12.0,29.95,ENE,74,0.0,0.0,89,0.00,OVC,,0.00,0.0,WeatherDisplay:10.37,2013-12-21 09:53:00,
2013-12-21 03:58:00,14.7,11.8,29.95,ENE,74,0.0,0.0,88,0.00,OVC,,0.00,0.0,WeatherDisplay:10.37,2013-12-21 09:58:00,
2013-12-21 04:03:00,14.7,11.8,29.94,ENE,74,0.0,0.0,88,0.00,OVC,,0.00,0.0,WeatherDisplay:10.37,2013-12-21 10:03:00,
2013-12-21 04:08:00,14.7,11.8,29.95,ENE,74,0.0,0.0,88,0.00,OVC,,0.00,0.0,WeatherDisplay:10.37,2013-12-21 10:08:00,
2013-12-21 04:14:00,14.7,12.0,29.96,ENE,74,0.0,0.0,89,0.00,OVC,,0.00,0.0,WeatherDisplay:10.37,2013-12-21 10:14:00,
2013-12-21 04:19:00,14.8,12.1,29.95,ENE,74,0.0,0.0,89,0.00,OVC,,0.00,0.0,WeatherDisplay:10.37,2013-12-21 10:19:00,
2013-12-21 04:24:00,14.9,12.2,29.95,ENE,74,0.0,0.0,89,0.00,OVC,,0.00,0.0,WeatherDisplay:10.37,2013-12-21 10:24:00,
2013-12-21 04:29:00,15.0,12.3,29.96,ENE,74,0.0,0.0,89,0.00,OVC,,0.00,0.0,WeatherDisplay:10.37,2013-12-21 10:29:00,
2013-12-21 04:34:00,15.1,12.4,29.96,ENE,74,0.0,0.0,89,0.00,OVC,,0.00,0.0,WeatherDisplay:10.37,2013-12-21 10:34:00,
2013-12-21 04:39:00,15.2,12.5,29.96,ENE,74,0.0,0.0,89,0.00,OVC,,0.00,0.0,WeatherDisplay:10.37,2013-12-21 10:39:00,
2013-12-21 04:44:00,15.2,12.5,29.96,ENE,74,0.0,0.0,89,0.00,OVC,,0.00,0.0,WeatherDisplay:10.37,2013-12-21 10:44:00,
2013-12-21 04:49:00,15.4,12.7,29.95,ENE,74,0.0,0.0,89,0.00,OVC,,0.00,0.0,WeatherDisplay:10.37,2013-12-21 10:49:00,
2013-12-21 04:54:00,15.5,12.8,29.96,ENE,74,0.0,0.0,89,0.00,OVC,,0.00,0.0,WeatherDisplay:10.37,2013-12-21 10:54:00,
2013-12-21 04:59:00,15.6,12.9,29.96,ENE,74,0.0,0.0,89,0.00,OVC,,0.00,0.0,WeatherDisplay:10.37,2013-12-21 10:59:00,
2013-12-21 05:04:00,15.8,12.9,29.95,ENE,74,0.0,0.0,88,0.00,OVC,,0.00,0.0,WeatherDisplay:10.37,2013-12-21 11:04:00,
2013-12-21 05:09:00,15.9,13.2,29.96,ENE,74,0.0,0.0,89,0.00,OVC,,0.00,0.0,WeatherDisplay:10.37,2013-12-21 11:09:00,
2013-12-21 05:14:00,15.9,13.0,29.96,ENE,74,0.0,0.0,88,0.00,OVC,,0.00,0.0,WeatherDisplay:10.37,2013-12-21 11:14:00,
2013-12-21 05:19:00,16.0,13.1,29.96,ENE,74,0.0,0.0,88,0.00,OVC,,0.00,0.0,WeatherDisplay:10.37,2013-12-21 11:19:00,
2013-12-21 05:24:00,16.2,13.3,29.95,ENE,74,0.0,0.0,88,0.00,OVC,,0.00,0.0,WeatherDisplay:10.37,2013-12-21 11:24:00,
2013-12-21 05:29:00,16.3,13.4,29.95,ENE,74,0.0,0.0,88,0.00,OVC,,0.00,0.0,WeatherDisplay:10.37,2013-12-21 11:29:00,
2013-12-21 05:34:00,16.4,13.5,29.96,ENE,74,0.0,0.0,88,0.00,OVC,,0.00,0.0,WeatherDisplay:10.37,2013-12-21 11:34:00,
2013-12-21 05:39:00,16.6,13.7,29.95,ENE,74,0.0,0.0,88,0.00,OVC,,0.00,0.0,WeatherDisplay:10.37,2013-12-21 11:39:00,
2013-12-21 05:44:00,16.6,13.7,29.96,ENE,74,0.0,0.0,88,0.00,OVC,,0.00,0.0,WeatherDisplay:10.37,2013-12-21 11:44:00,
2013-12-21 05:49:00,16.8,13.9,29.96,ENE,74,0.0,0.0,88,0.00,OVC,,0.00,0.0,WeatherDisplay:10.37,2013-12-21 11:49:00,
2013-12-21 05:54:00,16.9,14.0,29.95,ENE,74,0.0,0.0,88,0.00,OVC,,0.00,0.0,WeatherDisplay:10.37,2013-12-21 11:54:00,
2013-12-21 05:59:00,17.1,14.2,29.95,ENE,74,0.0,0.0,88,0.00,OVC,,0.00,0.0,WeatherDisplay:10.37,2013-12-21 11:59:00,
2013-12-21 06:04:00,17.3,14.4,29.94,ENE,74,0.0,0.0,88,0.00,OVC,,0.00,0.0,WeatherDisplay:10.37,2013-12-21 12:04:00,
2013-12-21 06:09:00,17.4,14.5,29.95,ENE,74,0.0,0.0,88,0.00,OVC,,0.00,0.0,WeatherDisplay:10.37,2013-12-21 12:09:00,
2013-12-21 06:14:00,17.6,14.4,29.95,ENE,74,0.0,0.0,87,0.00,OVC,,0.00,0.0,WeatherDisplay:10.37,2013-12-21 12:14:00,
2013-12-21 06:19:00,17.7,14.5,29.95,ENE,74,0.0,0.0,87,0.00,OVC,,0.00,0.0,WeatherDisplay:10.37,2013-12-21 12:19:00,
2013-12-21 06:24:00,17.7,14.5,29.95,ENE,74,0.0,0.0,87,0.00,OVC,,0.00,0.0,WeatherDisplay:10.37,2013-12-21 12:24:00,
2013-12-21 06:29:00,17.8,14.6,29.95,ENE,74,0.0,0.0,87,0.00,OVC,,0.00,0.0,WeatherDisplay:10.37,2013-12-21 12:29:00,
2013-12-21 06:34:00,17.9,14.7,29.95,ENE,74,0.0,0.0,87,0.00,OVC,,0.00,0.0,WeatherDisplay:10.37,2013-12-21 12:34:00,
2013-12-21 06:39:00,17.9,14.7,29.95,ENE,74,0.0,0.0,87,0.00,OVC,,0.00,0.0,WeatherDisplay:10.37,2013-12-21 12:39:00,
2013-12-21 06:44:00,17.9,14.7,29.94,ENE,74,0.0,0.0,87,0.00,OVC,,0.00,0.0,WeatherDisplay:10.37,2013-12-21 12:44:00,
2013-12-21 06:49:00,18.1,14.9,29.94,ENE,74,0.0,0.0,87,0.00,OVC,,0.00,0.0,WeatherDisplay:10.37,2013-12-21 12:49:00,
2013-12-21 06:54:00,18.1,14.9,29.94,ENE,74,0.0,0.0,87,0.00,OVC,,0.00,0.0,WeatherDisplay:10.37,2013-12-21 12:54:00,
2013-12-21 06:59:00,18.1,14.9,29.94,ENE,74,0.0,0.0,87,0.00,OVC,,0.00,0.0,WeatherDisplay:10.37,2013-12-21 12:59:00,
2013-12-21 07:04:00,18.0,14.8,29.95,ENE,74,0.0,0.0,87,0.00,OVC,,0.00,0.0,WeatherDisplay:10.37,2013-12-21 13:04:00,
2013-12-21 07:09:00,18.0,14.8,29.96,ENE,74,0.0,0.0,87,0.00,OVC,,0.00,0.0,WeatherDisplay:10.37,2013-12-21 13:09:00,
2013-12-21 07:14:00,17.9,14.7,29.96,ENE,74,0.0,0.0,87,0.00,OVC,,0.00,0.0,WeatherDisplay:10.37,2013-12-21 13:14:00,
2013-12-21 07:19:00,17.8,14.8,29.97,ENE,74,0.0,0.0,88,0.00,OVC,,0.00,0.0,WeatherDisplay:10.37,2013-12-21 13:19:00,
2013-12-21 07:24:00,17.6,14.7,29.98,ENE,74,0.0,0.0,88,0.00,OVC,,0.00,0.0,WeatherDisplay:10.37,2013-12-21 13:24:00,
2013-12-21 07:29:00,17.5,14.6,29.99,ENE,74,0.0,0.0,88,0.00,OVC,,0.00,0.0,WeatherDisplay:10.37,2013-12-21 13:29:00,
2013-12-21 07:34:00,17.4,14.5,29.99,ENE,74,0.0,0.0,88,0.00,OVC,,0.00,0.0,WeatherDisplay:10.37,2013-12-21 13:34:00,
2013-12-21 07:39:00,17.3,14.4,29.99,ENE,74,0.0,0.0,88,0.00,OVC,,0.00,0.0,WeatherDisplay:10.37,2013-12-21 13:39:00,
2013-12-21 07:44:00,17.3,14.6,29.99,ENE,74,0.0,0.0,89,0.00,OVC,,0.00,0.0,WeatherDisplay:10.37,2013-12-21 13:44:00,
2013-12-21 07:49:00,17.2,14.5,30.00,ENE,74,0.0,0.0,89,0.00,OVC,,0.00,0.0,WeatherDisplay:10.37,2013-12-21 13:49:00,
2013-12-21 07:54:00,17.3,14.6,30.00,ENE,74,0.0,0.0,89,0.00,OVC,,0.00,0.0,WeatherDisplay:10.37,2013-12-21 13:54:00,
2013-12-21 07:59:00,17.3,14.6,30.00,ENE,74,0.0,0.0,89,0.00,OVC,,0.00,0.0,WeatherDisplay:10.37,2013-12-21 13:59:00,
2013-12-21 08:04:00,17.5,14.8,29.99,ENE,74,0.0,0.0,89,0.00,OVC,,0.00,0.0,WeatherDisplay:10.37,2013-12-21 14:04:00,
2013-12-21 08:10:00,17.7,15.0,30.00,ENE,74,0.0,0.0,89,0.00,OVC,,0.00,0.0,WeatherDisplay:10.37,2013-12-21 14:10:00,
2013-12-21 08:15:00,17.8,15.1,29.99,ENE,74,0.0,0.0,89,0.00,OVC,,0.00,0.0,WeatherDisplay:10.37,2013-12-21 14:15:00,
2013-12-21 08:20:00,17.7,14.8,30.00,ENE,74,0.0,0.0,88,0.00,OVC,,0.00,5.0,WeatherDisplay:10.37,2013-12-21 14:20:00,
2013-12-21 08:25:00,17.7,14.8,30.00,ENE,74,0.0,0.0,88,0.00,OVC,,0.00,5.0,WeatherDisplay:10.37,2013-12-21 14:25:00,
2013-12-21 08:30:00,17.8,15.1,30.00,ENE,74,0.0,0.0,89,0.00,OVC,,0.00,7.0,WeatherDisplay:10.37,2013-12-21 14:30:00,
2013-12-21 08:35:00,17.9,15.2,30.00,ENE,74,0.0,0.0,89,0.00,OVC,,0.00,7.0,WeatherDisplay:10.37,2013-12-21 14:35:00,
2013-12-21 08:40:00,18.2,15.5,29.99,ENE,74,0.0,0.0,89,0.00,OVC,,0.00,9.0,WeatherDisplay:10.37,2013-12-21 14:40:00,
2013-12-21 08:45:00,18.4,15.7,30.00,ENE,74,0.0,0.0,89,0.00,OVC,,0.00,9.0,WeatherDisplay:10.37,2013-12-21 14:45:00,
2013-12-21 08:50:00,18.6,15.9,30.00,ENE,74,0.0,0.0,89,0.00,OVC,,0.00,11.0,WeatherDisplay:10.37,2013-12-21 14:50:00,
2013-12-21 08:55:00,18.8,15.8,30.00,ENE,74,0.0,0.0,88,0.00,OVC,,0.00,14.0,WeatherDisplay:10.37,2013-12-21 14:55:00,
2013-12-21 09:00:00,18.8,15.8,30.01,ENE,74,0.0,0.0,88,0.00,OVC,,0.00,16.0,WeatherDisplay:10.37,2013-12-21 15:00:00,
2013-12-21 09:05:00,19.1,16.1,30.01,ENE,74,0.0,0.0,88,0.00,OVC,,0.00,18.0,WeatherDisplay:10.37,2013-12-21 15:05:00,
2013-12-21 09:10:00,19.3,16.3,30.01,ENE,74,0.0,0.0,88,0.00,OVC,,0.00,21.0,WeatherDisplay:10.37,2013-12-21 15:10:00,
2013-12-21 09:15:00,19.5,16.3,30.00,ENE,74,0.0,0.0,87,0.00,OVC,,0.00,23.0,WeatherDisplay:10.37,2013-12-21 15:15:00,
2013-12-21 09:20:00,19.9,16.7,30.01,ENE,74,0.0,0.0,87,0.00,OVC,,0.00,30.0,WeatherDisplay:10.37,2013-12-21 15:20:00,
2013-12-21 09:25:00,20.1,16.6,30.01,ENE,74,0.0,0.0,86,0.00,OVC,,0.00,30.0,WeatherDisplay:10.37,2013-12-21 15:25:00,
2013-12-21 09:30:00,20.2,16.4,30.01,ENE,74,0.0,0.0,85,0.00,OVC,,0.00,28.0,WeatherDisplay:10.37,2013-12-21 15:30:00,
2013-12-21 09:35:00,20.3,16.5,30.02,ENE,74,0.0,0.0,85,0.00,OVC,,0.00,25.0,WeatherDisplay:10.37,2013-12-21 15:35:00,
2013-12-21 09:40:00,20.3,16.5,30.02,ENE,74,0.0,0.0,85,0.00,OVC,,0.00,28.0,WeatherDisplay:10.37,2013-12-21 15:40:00,
2013-12-21 09:45:00,20.3,16.2,30.01,ENE,74,1.0,0.0,84,0.00,OVC,,0.00,32.0,WeatherDisplay:10.37,2013-12-21 15:45:00,
2013-12-21 09:50:00,20.2,16.1,30.00,ENE,68,0.0,0.1,84,0.00,OVC,,0.00,37.0,WeatherDisplay:10.37,2013-12-21 15:50:00,
2013-12-21 09:55:00,20.0,16.2,30.02,ENE,68,1.2,1.2,85,0.00,OVC,,0.00,28.0,WeatherDisplay:10.37,2013-12-21 15:55:00,
2013-12-21 10:00:00,19.9,15.8,30.02,ENE,68,0.0,0.0,84,0.00,OVC,,0.00,35.0,WeatherDisplay:10.37,2013-12-21 16:00:00,
2013-12-21 10:05:00,19.7,15.9,30.02,ENE,69,0.0,0.0,85,0.00,OVC,,0.00,33.0,WeatherDisplay:10.37,2013-12-21 16:05:00,
2013-12-21 10:10:00,19.7,15.9,30.03,ENE,69,0.0,0.0,85,0.00,OVC,,0.00,26.0,WeatherDisplay:10.37,2013-12-21 16:10:00,
2013-12-21 10:15:00,19.9,16.1,30.03,ENE,69,0.0,0.0,85,0.00,OVC,,0.00,32.0,WeatherDisplay:10.37,2013-12-21 16:15:00,
2013-12-21 10:20:00,20.0,15.9,30.03,ENE,69,0.0,0.0,84,0.00,OVC,,0.00,28.0,WeatherDisplay:10.37,2013-12-21 16:20:00,
2013-12-21 10:25:00,20.2,16.1,30.04,ENE,69,0.0,0.0,84,0.00,OVC,,0.00,23.0,WeatherDisplay:10.37,2013-12-21 16:25:00,
2013-12-21 10:30:00,20.3,16.2,30.05,ENE,69,0.0,0.0,84,0.00,OVC,,0.00,23.0,WeatherDisplay:10.37,2013-12-21 16:30:00,
2013-12-21 10:35:00,20.4,16.3,30.05,ENE,69,0.0,0.0,84,0.00,OVC,,0.00,23.0,WeatherDisplay:10.37,2013-12-21 16:35:00,
2013-12-21 10:40:00,20.5,16.4,30.03,ENE,69,0.0,0.0,84,0.00,OVC,,0.00,30.0,WeatherDisplay:10.37,2013-12-21 16:40:00,
2013-12-21 10:45:00,20.6,16.3,30.02,ENE,69,0.0,0.0,83,0.00,OVC,,0.00,25.0,WeatherDisplay:10.37,2013-12-21 16:45:00,
2013-12-21 10:50:00,20.6,16.5,30.01,ENE,69,0.0,0.0,84,0.00,OVC,,0.00,32.0,WeatherDisplay:10.37,2013-12-21 16:50:00,
2013-12-21 10:55:00,20.8,16.5,30.00,ENE,69,0.0,0.0,83,0.00,OVC,,0.00,42.0,WeatherDisplay:10.37,2013-12-21 16:55:00,
2013-12-21 11:00:00,20.9,16.8,30.00,ENE,69,0.0,0.0,84,0.00,OVC,,0.00,51.0,WeatherDisplay:10.37,2013-12-21 17:00:00,
2013-12-21 11:05:00,21.2,16.8,30.00,ENE,69,0.0,0.0,83,0.00,OVC,,0.00,63.0,WeatherDisplay:10.37,2013-12-21 17:05:00,
2013-12-21 11:10:00,21.2,16.6,30.01,ENE,70,2.3,2.3,82,0.00,OVC,,0.00,56.0,WeatherDisplay:10.37,2013-12-21 17:10:00,
2013-12-21 11:15:00,21.0,16.4,30.01,ENE,70,1.2,0.0,82,0.00,OVC,,0.00,51.0,WeatherDisplay:10.37,2013-12-21 17:15:00,
2013-12-21 11:20:00,20.9,16.5,30.02,ENE,70,0.0,0.0,83,0.00,OVC,,0.00,49.0,WeatherDisplay:10.37,2013-12-21 17:20:00,
2013-12-21 11:25:00,20.9,16.8,30.01,ENE,70,0.0,0.0,84,0.00,OVC,,0.00,60.0,WeatherDisplay:10.37,2013-12-21 17:25:00,
2013-12-21 11:30:00,21.1,17.0,30.01,ENE,70,0.0,0.0,84,0.00,OVC,,0.00,67.0,WeatherDisplay:10.37,2013-12-21 17:30:00,
2013-12-21 11:35:00,21.5,17.4,30.02,ENE,70,0.0,0.0,84,0.00,OVC,,0.00,76.0,WeatherDisplay:10.37,2013-12-21 17:35:00,
2013-12-21 11:40:00,21.9,17.2,30.00,SW,216,1.2,0.0,82,0.00,OVC,,0.00,77.0,WeatherDisplay:10.37,2013-12-21 17:40:00,
2013-12-21 11:45:00,22.0,17.1,30.00,ESE,112,1.2,1.2,81,0.00,OVC,,0.00,70.0,WeatherDisplay:10.37,2013-12-21 17:45:00,
2013-12-21 11:50:00,21.5,16.6,30.01,East,101,2.3,2.3,81,0.00,OVC,,0.00,72.0,WeatherDisplay:10.37,2013-12-21 17:50:00,
2013-12-21 11:55:00,21.5,16.9,30.00,East,93,0.0,0.0,82,0.00,OVC,,0.00,67.0,WeatherDisplay:10.37,2013-12-21 17:55:00,
2013-12-21 12:00:00,21.6,17.2,29.99,East,93,0.0,0.0,83,0.00,OVC,,0.00,47.0,WeatherDisplay:10.37,2013-12-21 18:00:00,
2013-12-21 12:05:00,21.5,16.9,30.00,South,174,0.0,0.0,82,0.00,OVC,,0.00,35.0,WeatherDisplay:10.37,2013-12-21 18:05:00,
2013-12-21 12:10:00,21.6,17.0,29.99,South,174,0.0,0.0,82,0.00,OVC,,0.00,81.0,WeatherDisplay:10.37,2013-12-21 18:10:00,
2013-12-21 12:15:00,21.8,17.2,29.97,SW,221,0.0,0.0,82,0.00,OVC,,0.00,69.0,WeatherDisplay:10.37,2013-12-21 18:15:00,
2013-12-21 12:20:00,21.9,17.2,29.99,NNW,332,2.3,0.0,82,0.00,OVC,,0.00,81.0,WeatherDisplay:10.37,2013-12-21 18:20:00,
2013-12-21 12:25:00,22.2,17.5,29.99,WNW,296,1.0,1.0,82,0.00,OVC,,0.00,88.0,WeatherDisplay:10.37,2013-12-21 18:25:00,
2013-12-21 12:30:00,22.3,17.4,29.99,SW,233,1.2,1.2,81,0.00,OVC,,0.00,72.0,WeatherDisplay:10.37,2013-12-21 18:30:00,
2013-12-21 12:35:00,22.4,17.5,30.01,West,273,0.0,0.0,81,0.00,OVC,,0.00,81.0,WeatherDisplay:10.37,2013-12-21 18:35:00,
2013-12-21 12:40:00,22.7,18.0,30.01,West,277,0.0,0.1,82,0.00,OVC,,0.00,63.0,WeatherDisplay:10.37,2013-12-21 18:40:00,
2013-12-21 12:45:00,22.5,17.3,30.01,NNE,24,2.3,2.3,80,0.00,OVC,,0.00,47.0,WeatherDisplay:10.37,2013-12-21 18:45:00,
2013-12-21 12:50:00,22.2,17.0,30.01,WSW,250,3.5,3.5,80,0.00,OVC,,0.00,63.0,WeatherDisplay:10.37,2013-12-21 18:50:00,
2013-12-21 12:55:00,22.1,17.4,30.00,NNE,24,3.5,3.5,82,0.00,OVC,,0.00,111.0,WeatherDisplay:10.37,2013-12-21 18:55:00,
2013-12-21 13:00:00,22.4,17.7,30.01,North,5,2.3,0.0,82,0.00,OVC,,0.00,95.0,WeatherDisplay:10.37,2013-12-21 19:00:00,
2013-12-21 13:05:00,22.1,16.9,30.02,West,280,2.3,2.3,80,0.00,OVC,,0.00,63.0,WeatherDisplay:10.37,2013-12-21 19:05:00,
2013-12-21 13:10:00,22.0,17.1,30.02,WNW,286,1.2,1.2,81,0.00,OVC,,0.00,72.0,WeatherDisplay:10.37,2013-12-21 19:10:00,
2013-12-21 13:16:00,21.9,17.0,30.03,NW,304,2.3,0.0,81,0.00,OVC,,0.00,58.0,WeatherDisplay:10.37,2013-12-21 19:16:00,
2013-12-21 13:21:00,22.1,17.2,30.03,NW,309,0.0,0.0,81,0.00,OVC,,0.00,47.0,WeatherDisplay:10.37,2013-12-21 19:21:00,
2013-12-21 13:26:00,22.2,17.3,30.03,NW,309,0.0,0.0,81,0.00,OVC,,0.00,53.0,WeatherDisplay:10.37,2013-12-21 19:26:00,
2013-12-21 13:31:00,22.2,17.3,30.03,WNW,292,0.0,0.0,81,0.00,OVC,,0.00,58.0,WeatherDisplay:10.37,2013-12-21 19:31:00,
2013-12-21 13:36:00,22.2,17.3,30.03,WNW,292,0.0,0.0,81,0.00,OVC,,0.00,62.0,WeatherDisplay:10.37,2013-12-21 19:36:00,
2013-12-21 13:41:00,22.2,17.3,30.03,WNW,292,0.0,0.0,81,0.00,OVC,,0.00,56.0,WeatherDisplay:10.37,2013-12-21 19:41:00,
2013-12-21 13:46:00,22.3,17.6,30.03,WNW,292,0.0,0.0,82,0.00,OVC,,0.00,60.0,WeatherDisplay:10.37,2013-12-21 19:46:00,
2013-12-21 13:51:00,22.5,17.5,30.03,West,269,1.2,0.0,81,0.00,OVC,,0.00,54.0,WeatherDisplay:10.37,2013-12-21 19:51:00,
2013-12-21 13:56:00,22.5,17.5,30.03,WNW,286,2.3,0.0,81,0.00,OVC,,0.00,56.0,WeatherDisplay:10.37,2013-12-21 19:56:00,
2013-12-21 14:01:00,22.6,17.9,30.02,WNW,286,1.2,0.0,82,0.00,OVC,,0.00,53.0,WeatherDisplay:10.37,2013-12-21 20:01:00,
2013-12-21 14:06:00,22.7,17.7,30.02,WNW,290,1.2,0.0,81,0.00,OVC,,0.00,49.0,WeatherDisplay:10.37,2013-12-21 20:06:00,
2013-12-21 14:11:00,22.7,17.7,30.02,West,275,2.3,2.3,81,0.00,OVC,,0.00,49.0,WeatherDisplay:10.37,2013-12-21 20:11:00,
2013-12-21 14:16:00,22.6,17.4,30.02,West,275,1.2,0.0,80,0.00,OVC,,0.00,53.0,WeatherDisplay:10.37,2013-12-21 20:16:00,
2013-12-21 14:21:00,22.4,17.5,30.01,WNW,301,0.0,0.0,81,0.00,OVC,,0.00,60.0,WeatherDisplay:10.37,2013-12-21 20:21:00,
2013-12-21 14:26:00,22.4,17.5,30.02,WSW,248,1.2,0.0,81,0.00,OVC,,0.00,49.0,WeatherDisplay:10.37,2013-12-21 20:26:00,
2013-12-21 14:31:00,22.4,17.5,30.02,WSW,249,1.2,0.0,81,0.00,OVC,,0.00,42.0,WeatherDisplay:10.37,2013-12-21 20:31:00,
2013-12-21 14:36:00,22.4,17.5,30.02,WSW,249,0.0,0.0,81,0.00,OVC,,0.00,49.0,WeatherDisplay:10.37,2013-12-21 20:36:00,
2013-12-21 14:41:00,22.4,17.5,30.02,WNW,292,1.2,0.0,81,0.00,OVC,,0.00,54.0,WeatherDisplay:10.37,2013-12-21 20:41:00,
2013-12-21 14:46:00,22.6,17.9,30.02,WNW,292,0.0,0.0,82,0.00,OVC,,0.00,53.0,WeatherDisplay:10.37,2013-12-21 20:46:00,
2013-12-21 14:51:00,22.6,17.6,30.02,WNW,292,0.0,0.0,81,0.00,OVC,,0.00,42.0,WeatherDisplay:10.37,2013-12-21 20:51:00,
2013-12-21 14:56:00,22.6,17.6,30.02,WNW,292,1.2,1.2,81,0.00,OVC,,0.00,30.0,WeatherDisplay:10.37,2013-12-21 20:56:00,
2013-12-21 15:01:00,22.5,17.5,30.02,West,278,1.2,1.2,81,0.00,OVC,,0.00,28.0,WeatherDisplay:10.37,2013-12-21 21:01:00,
2013-12-21 15:06:00,22.4,17.5,30.02,West,278,0.0,0.0,81,0.00,OVC,,0.00,26.0,WeatherDisplay:10.37,2013-12-21 21:06:00,
2013-12-21 15:11:00,22.4,17.5,30.02,North,349,2.0,2.0,81,0.00,OVC,,0.00,26.0,WeatherDisplay:10.37,2013-12-21 21:11:00,
2013-12-21 15:16:00,22.4,17.5,30.02,NNW,348,0.0,0.0,81,0.00,OVC,,0.00,25.0,WeatherDisplay:10.37,2013-12-21 21:16:00,
2013-12-21 15:21:00,22.4,17.5,30.02,NE,35,0.0,0.0,81,0.00,OVC,,0.00,19.0,WeatherDisplay:10.37,2013-12-21 21:21:00,
2013-12-21 15:26:00,22.4,17.5,30.02,NE,34,0.0,0.0,81,0.00,OVC,,0.00,18.0,WeatherDisplay:10.37,2013-12-21 21:26:00,
2013-12-21 15:31:00,22.3,17.6,30.02,West,270,1.2,1.2,82,0.00,OVC,,0.00,18.0,WeatherDisplay:10.37,2013-12-21 21:31:00,
2013-12-21 15:36:00,22.3,17.6,30.02,West,270,0.0,0.0,82,0.00,OVC,,0.00,14.0,WeatherDisplay:10.37,2013-12-21 21:36:00,
2013-12-21 15:41:00,22.3,17.6,30.02,West,270,0.0,0.0,82,0.00,OVC,,0.00,12.0,WeatherDisplay:10.37,2013-12-21 21:41:00,
2013-12-21 15:46:00,22.2,17.3,30.03,NW,321,1.2,0.0,81,0.00,OVC,,0.00,11.0,WeatherDisplay:10.37,2013-12-21 21:46:00,
2013-12-21 15:51:00,22.2,17.5,30.03,NW,321,0.0,0.0,82,0.00,OVC,,0.00,11.0,WeatherDisplay:10.37,2013-12-21 21:51:00,
2013-12-21 15:56:00,22.2,17.5,30.04,NW,321,1.2,1.2,82,0.00,OVC,,0.00,9.0,WeatherDisplay:10.37,2013-12-21 21:56:00,
2013-12-21 16:01:00,22.1,17.4,30.04,NW,321,0.0,0.0,82,0.00,OVC,,0.00,7.0,WeatherDisplay:10.37,2013-12-21 22:01:00,
2013-12-21 16:06:00,22.0,17.3,30.04,NW,321,0.0,0.0,82,0.00,OVC,,0.00,5.0,WeatherDisplay:10.37,2013-12-21 22:06:00,
2013-12-21 16:11:00,22.0,17.3,30.04,NW,321,0.0,0.0,82,0.00,OVC,,0.00,0.0,WeatherDisplay:10.37,2013-12-21 22:11:00,
2013-12-21 16:16:00,21.8,17.2,30.05,NW,321,0.0,0.0,82,0.00,OVC,,0.00,0.0,WeatherDisplay:10.37,2013-12-21 22:16:00,
2013-12-21 16:21:00,21.5,16.9,30.04,ENE,62,1.0,0.0,82,0.00,OVC,,0.00,0.0,WeatherDisplay:10.37,2013-12-21 22:21:00,
2013-12-21 16:26:00,21.1,16.5,30.04,NNW,336,1.2,1.2,82,0.00,OVC,,0.00,0.0,WeatherDisplay:10.37,2013-12-21 22:26:00,
2013-12-21 16:31:00,21.0,16.6,30.04,NNW,336,0.0,0.0,83,0.00,OVC,,0.00,0.0,WeatherDisplay:10.37,2013-12-21 22:31:00,
2013-12-21 16:36:00,21.0,16.6,30.04,NNW,336,0.0,0.0,83,0.00,OVC,,0.00,0.0,WeatherDisplay:10.37,2013-12-21 22:36:00,
2013-12-21 16:41:00,20.9,16.5,30.04,NNW,336,0.0,0.0,83,0.00,OVC,,0.00,0.0,WeatherDisplay:10.37,2013-12-21 22:41:00,
2013-12-21 16:46:00,20.8,16.5,30.03,North,355,2.0,0.0,83,0.00,OVC,,0.00,0.0,WeatherDisplay:10.37,2013-12-21 22:46:00,
2013-12-21 16:51:00,20.8,16.5,30.03,North,355,1.2,1.2,83,0.00,OVC,,0.00,0.0,WeatherDisplay:10.37,2013-12-21 22:51:00,
2013-12-21 16:56:00,20.5,16.2,30.03,ENE,68,0.0,0.0,83,0.00,OVC,,0.00,0.0,WeatherDisplay:10.37,2013-12-21 22:56:00,
2013-12-21 17:01:00,20.3,16.2,30.03,ENE,68,0.0,0.0,84,0.00,OVC,,0.00,0.0,WeatherDisplay:10.37,2013-12-21 23:01:00,
2013-12-21 17:06:00,20.2,16.4,30.04,ENE,68,0.0,0.0,85,0.00,OVC,,0.00,0.0,WeatherDisplay:10.37,2013-12-21 23:06:00,
2013-12-21 17:11:00,20.2,16.4,30.04,ENE,68,0.0,0.0,85,0.00,OVC,,0.00,0.0,WeatherDisplay:10.37,2013-12-21 23:11:00,
2013-12-21 17:16:00,20.2,16.4,30.05,ENE,68,0.0,0.0,85,0.00,OVC,,0.00,0.0,WeatherDisplay:10.37,2013-12-21 23:16:00,
2013-12-21 17:21:00,20.3,16.5,30.05,ENE,68,0.0,0.0,85,0.00,OVC,,0.00,0.0,WeatherDisplay:10.37,2013-12-21 23:21:00,
2013-12-21 17:26:00,20.2,16.4,30.05,ENE,68,1.2,0.0,85,0.00,OVC,,0.00,0.0,WeatherDisplay:10.37,2013-12-21 23:26:00,
2013-12-21 17:31:00,20.2,16.4,30.06,ENE,68,0.0,0.0,85,0.00,OVC,,0.00,0.0,WeatherDisplay:10.37,2013-12-21 23:31:00,
2013-12-21 17:36:00,20.2,16.4,30.06,ENE,68,0.0,0.0,85,0.00,OVC,,0.00,0.0,WeatherDisplay:10.37,2013-12-21 23:36:00,
2013-12-21 17:41:00,20.2,16.4,30.06,ENE,68,0.0,0.0,85,0.00,OVC,,0.00,0.0,WeatherDisplay:10.37,2013-12-21 23:41:00,
2013-12-21 17:46:00,20.1,16.3,30.05,ENE,68,0.0,0.0,85,0.00,OVC,,0.00,0.0,WeatherDisplay:10.37,2013-12-21 23:46:00,
2013-12-21 17:51:00,20.0,16.2,30.05,ENE,68,0.0,0.0,85,0.00,OVC,,0.00,0.0,WeatherDisplay:10.37,2013-12-21 23:51:00,
2013-12-21 17:56:00,20.0,15.9,30.04,ENE,68,0.0,0.0,84,0.00,OVC,,0.00,0.0,WeatherDisplay:10.37,2013-12-21 23:56:00,
2013-12-21 18:01:00,20.0,16.2,30.04,ENE,68,0.0,0.0,85,0.00,OVC,,0.00,0.0,WeatherDisplay:10.37,2013-12-22 00:01:00,
2013-12-21 18:06:00,20.1,16.3,30.04,ENE,68,0.0,0.0,85,0.00,OVC,,0.00,0.0,WeatherDisplay:10.37,2013-12-22 00:06:00,
2013-12-21 18:11:00,20.2,16.4,30.04,ENE,68,0.0,0.0,85,0.00,OVC,,0.00,0.0,WeatherDisplay:10.37,2013-12-22 00:11:00,
2013-12-21 18:16:00,20.3,16.2,30.05,ENE,68,0.0,0.0,84,0.00,OVC,,0.00,0.0,WeatherDisplay:10.37,2013-12-22 00:16:00,
2013-12-21 18:21:00,20.4,16.3,30.05,ENE,68,0.0,0.0,84,0.00,OVC,,0.00,0.0,WeatherDisplay:10.37,2013-12-22 00:21:00,
2013-12-21 18:26:00,20.4,16.3,30.04,ENE,68,0.0,0.0,84,0.00,OVC,,0.00,0.0,WeatherDisplay:10.37,2013-12-22 00:26:00,
2013-12-21 18:31:00,20.4,16.3,30.04,ENE,68,0.0,0.0,84,0.00,OVC,,0.00,0.0,WeatherDisplay:10.37,2013-12-22 00:31:00,
2013-12-21 18:36:00,20.5,16.4,30.05,ENE,68,0.0,0.0,84,0.00,OVC,,0.00,0.0,WeatherDisplay:10.37,2013-12-22 00:36:00,
2013-12-21 18:41:00,20.6,16.5,30.05,ENE,68,0.0,0.0,84,0.00,OVC,,0.00,0.0,WeatherDisplay:10.37,2013-12-22 00:41:00,
2013-12-21 18:46:00,20.6,16.5,30.05,ENE,68,0.0,0.0,84,0.00,OVC,,0.00,0.0,WeatherDisplay:10.37,2013-12-22 00:46:00,
2013-12-21 18:52:00,20.7,16.6,30.05,ENE,68,0.0,0.0,84,0.00,OVC,,0.00,0.0,WeatherDisplay:10.37,2013-12-22 00:52:00,
2013-12-21 18:57:00,20.7,16.6,30.05,ENE,68,0.0,0.0,84,0.00,OVC,,0.00,0.0,WeatherDisplay:10.37,2013-12-22 00:57:00,
2013-12-21 19:02:00,20.7,16.6,30.05,ENE,68,0.0,0.0,84,0.00,OVC,,0.00,0.0,WeatherDisplay:10.37,2013-12-22 01:02:00,
2013-12-21 19:07:00,20.8,16.7,30.04,ENE,68,0.0,0.0,84,0.00,OVC,,0.00,0.0,WeatherDisplay:10.37,2013-12-22 01:07:00,
2013-12-21 19:12:00,20.8,16.7,30.05,ENE,68,0.0,0.0,84,0.00,OVC,,0.00,0.0,WeatherDisplay:10.37,2013-12-22 01:12:00,
2013-12-21 19:17:00,20.9,16.8,30.05,ENE,68,0.0,0.0,84,0.00,OVC,,0.00,0.0,WeatherDisplay:10.37,2013-12-22 01:17:00,
2013-12-21 19:22:00,20.9,16.8,30.05,ENE,68,0.0,0.0,84,0.00,OVC,,0.00,0.0,WeatherDisplay:10.37,2013-12-22 01:22:00,
2013-12-21 19:27:00,20.9,16.5,30.04,ENE,68,0.0,0.0,83,0.00,OVC,,0.00,0.0,WeatherDisplay:10.37,2013-12-22 01:27:00,
2013-12-21 19:32:00,20.9,16.5,30.04,ENE,68,0.0,0.0,83,0.00,OVC,,0.00,0.0,WeatherDisplay:10.37,2013-12-22 01:32:00,
2013-12-21 19:37:00,20.7,16.4,30.05,ENE,68,0.0,0.0,83,0.00,OVC,,0.00,0.0,WeatherDisplay:10.37,2013-12-22 01:37:00,
2013-12-21 19:42:00,20.5,16.4,30.06,ENE,68,0.0,0.0,84,0.00,OVC,,0.00,0.0,WeatherDisplay:10.37,2013-12-22 01:42:00,
2013-12-21 19:47:00,20.4,16.6,30.06,ENE,68,0.0,0.0,85,0.00,OVC,,0.00,0.0,WeatherDisplay:10.37,2013-12-22 01:47:00,
2013-12-21 19:52:00,20.4,16.6,30.05,ENE,68,0.0,0.0,85,0.00,OVC,,0.00,0.0,WeatherDisplay:10.37,2013-12-22 01:52:00,
2013-12-21 19:57:00,20.5,16.7,30.05,ENE,68,0.0,0.0,85,0.00,OVC,,0.00,0.0,WeatherDisplay:10.37,2013-12-22 01:57:00,
2013-12-21 20:02:00,20.5,16.7,30.06,ENE,68,0.0,0.0,85,0.00,OVC,,0.00,0.0,WeatherDisplay:10.37,2013-12-22 02:02:00,
2013-12-21 20:07:00,20.6,16.8,30.06,ENE,68,0.0,0.0,85,0.00,OVC,,0.00,0.0,WeatherDisplay:10.37,2013-12-22 02:07:00,
2013-12-21 20:12:00,20.7,16.9,30.06,ENE,68,0.0,0.0,85,0.00,OVC,,0.00,0.0,WeatherDisplay:10.37,2013-12-22 02:12:00,
2013-12-21 20:17:00,20.7,16.9,30.06,ENE,68,0.0,0.0,85,0.00,OVC,,0.00,0.0,WeatherDisplay:10.37,2013-12-22 02:17:00,
2013-12-21 20:22:00,20.7,16.9,30.06,ENE,68,0.0,0.0,85,0.00,OVC,,0.00,0.0,WeatherDisplay:10.37,2013-12-22 02:22:00,
2013-12-21 20:27:00,20.7,16.9,30.06,ENE,68,0.0,0.0,85,0.00,OVC,,0.00,0.0,WeatherDisplay:10.37,2013-12-22 02:27:00,
2013-12-21 20:32:00,20.7,16.9,30.06,ENE,68,0.0,0.0,85,0.00,OVC,,0.00,0.0,WeatherDisplay:10.37,2013-12-22 02:32:00,
2013-12-21 20:37:00,20.8,17.0,30.06,ENE,68,0.0,0.0,85,0.00,OVC,,0.00,0.0,WeatherDisplay:10.37,2013-12-22 02:37:00,
2013-12-21 20:42:00,20.7,16.9,30.06,ENE,68,0.0,0.0,85,0.00,OVC,,0.00,0.0,WeatherDisplay:10.37,2013-12-22 02:42:00,
2013-12-21 20:47:00,20.6,16.8,30.05,ENE,68,0.0,0.0,85,0.00,OVC,,0.00,0.0,WeatherDisplay:10.37,2013-12-22 02:47:00,
2013-12-21 20:52:00,20.7,16.9,30.05,ENE,68,0.0,0.0,85,0.00,OVC,,0.00,0.0,WeatherDisplay:10.37,2013-12-22 02:52:00,
2013-12-21 20:57:00,20.7,16.9,30.04,ENE,68,0.0,0.0,85,0.00,OVC,,0.00,0.0,WeatherDisplay:10.37,2013-12-22 02:57:00,
2013-12-21 21:02:00,20.7,17.2,30.04,ENE,68,0.0,0.0,86,0.00,OVC,,0.00,0.0,WeatherDisplay:10.37,2013-12-22 03:02:00,
2013-12-21 21:07:00,20.8,17.3,30.03,ENE,68,0.0,0.0,86,0.00,OVC,,0.00,0.0,WeatherDisplay:10.37,2013-12-22 03:07:00,
2013-12-21 21:12:00,20.8,17.3,30.03,ENE,68,0.0,0.0,86,0.00,OVC,,0.00,0.0,WeatherDisplay:10.37,2013-12-22 03:12:00,
2013-12-21 21:17:00,20.9,17.4,30.02,ENE,68,0.0,0.0,86,0.00,OVC,,0.00,0.0,WeatherDisplay:10.37,2013-12-22 03:17:00,
2013-12-21 21:22:00,20.9,17.4,30.01,ENE,68,0.0,0.0,86,0.00,OVC,,0.00,0.0,WeatherDisplay:10.37,2013-12-22 03:22:00,
2013-12-21 21:27:00,20.9,17.4,30.01,ENE,68,0.0,0.0,86,0.00,OVC,,0.00,0.0,WeatherDisplay:10.37,2013-12-22 03:27:00,
2013-12-21 21:32:00,20.8,17.3,30.00,NNE,30,1.2,1.2,86,0.00,OVC,,0.00,0.0,WeatherDisplay:10.37,2013-12-22 03:32:00,
2013-12-21 21:37:00,20.9,17.4,30.00,NNE,32,0.0,0.0,86,0.00,OVC,,0.00,0.0,WeatherDisplay:10.37,2013-12-22 03:37:00,
2013-12-21 21:42:00,20.8,17.3,29.99,NE,40,0.0,0.0,86,0.00,OVC,,0.00,0.0,WeatherDisplay:10.37,2013-12-22 03:42:00,
2013-12-21 21:47:00,20.8,17.5,29.99,NE,39,2.3,2.3,87,0.00,OVC,,0.00,0.0,WeatherDisplay:10.37,2013-12-22 03:47:00,
2013-12-21 21:52:00,20.8,17.5,29.99,NE,44,2.3,2.3,87,0.00,OVC,,0.00,0.0,WeatherDisplay:10.37,2013-12-22 03:52:00,
2013-12-21 21:57:00,20.9,17.6,29.99,NE,49,0.0,0.0,87,0.00,OVC,,0.00,0.0,WeatherDisplay:10.37,2013-12-22 03:57:00,
2013-12-21 22:02:00,20.8,17.5,30.00,WNW,301,2.3,2.3,87,0.00,OVC,,0.00,0.0,WeatherDisplay:10.37,2013-12-22 04:02:00,
2013-12-21 22:07:00,20.8,17.5,30.00,ENE,69,0.0,0.0,87,0.00,OVC,,0.00,0.0,WeatherDisplay:10.37,2013-12-22 04:07:00,
2013-12-21 22:12:00,20.8,17.3,30.00,ENE,69,0.0,0.0,86,0.00,OVC,,0.00,0.0,WeatherDisplay:10.37,2013-12-22 04:12:00,
2013-12-21 22:17:00,20.9,17.6,29.99,ENE,69,0.0,0.0,87,0.00,OVC,,0.00,0.0,WeatherDisplay:10.37,2013-12-22 04:17:00,
2013-12-21 22:22:00,21.0,17.7,30.00,ENE,69,0.0,0.0,87,0.00,OVC,,0.00,0.0,WeatherDisplay:10.37,2013-12-22 04:22:00,
2013-12-21 22:27:00,21.1,17.8,29.99,ENE,69,0.0,0.0,87,0.00,OVC,,0.00,0.0,WeatherDisplay:10.37,2013-12-22 04:27:00,
2013-12-21 22:32:00,21.2,17.9,29.99,ENE,59,0.0,0.0,87,0.00,OVC,,0.00,0.0,WeatherDisplay:10.37,2013-12-22 04:32:00,
2013-12-21 22:37:00,21.2,17.9,30.00,ENE,59,0.0,0.0,87,0.00,OVC,,0.00,0.0,WeatherDisplay:10.37,2013-12-22 04:37:00,
2013-12-21 22:42:00,21.2,17.9,30.01,ENE,59,0.0,0.0,87,0.00,OVC,,0.00,0.0,WeatherDisplay:10.37,2013-12-22 04:42:00,
2013-12-21 22:47:00,21.3,18.0,30.01,ENE,59,0.0,0.0,87,0.00,OVC,,0.00,0.0,WeatherDisplay:10.37,2013-12-22 04:47:00,
2013-12-21 22:52:00,21.5,18.2,30.00,ENE,59,0.0,0.0,87,0.00,OVC,,0.00,0.0,WeatherDisplay:10.37,2013-12-22 04:52:00,
2013-12-21 22:57:00,21.6,18.3,30.00,ENE,59,0.0,0.0,87,0.00,OVC,,0.00,0.0,WeatherDisplay:10.37,2013-12-22 04:57:00,
2013-12-21 23:01:00,21.6,18.1,30.00,ENE,59,0.0,0.0,86,0.00,OVC,,0.00,0.0,WeatherDisplay:10.37,2013-12-22 05:01:00,
2013-12-21 23:02:00,21.7,18.2,30.00,ENE,59,0.0,0.0,86,0.00,OVC,,0.00,0.0,WeatherDisplay:10.37,2013-12-22 05:02:00,
2013-12-21 23:07:00,21.8,18.3,30.00,ENE,59,0.0,0.0,86,0.00,OVC,,0.00,0.0,WeatherDisplay:10.37,2013-12-22 05:07:00,
2013-12-21 23:12:00,21.8,18.3,30.00,ENE,59,0.0,0.0,86,0.00,OVC,,0.00,0.0,WeatherDisplay:10.37,2013-12-22 05:12:00,
2013-12-21 23:17:00,22.0,18.5,29.99,ENE,59,0.0,0.0,86,0.00,OVC,,0.00,0.0,WeatherDisplay:10.37,2013-12-22 05:17:00,
2013-12-21 23:22:00,22.1,18.3,29.99,ENE,59,0.0,0.0,85,0.00,OVC,,0.00,0.0,WeatherDisplay:10.37,2013-12-22 05:22:00,
2013-12-21 23:27:00,22.2,18.7,29.99,ENE,59,0.0,0.0,86,0.00,OVC,,0.00,0.0,WeatherDisplay:10.37,2013-12-22 05:27:00,
2013-12-21 23:32:00,22.2,18.4,30.00,ENE,59,0.0,0.0,85,0.00,OVC,,0.00,0.0,WeatherDisplay:10.37,2013-12-22 05:32:00,
2013-12-21 23:37:00,22.2,18.4,29.99,ENE,59,0.0,0.0,85,0.00,OVC,,0.00,0.0,WeatherDisplay:10.37,2013-12-22 05:37:00,
2013-12-21 23:42:00,22.2,18.4,29.99,ENE,59,0.0,0.0,85,0.00,OVC,,0.00,0.0,WeatherDisplay:10.37,2013-12-22 05:42:00,
2013-12-21 23:47:00,22.2,18.4,29.99,ENE,59,0.0,0.0,85,0.00,OVC,,0.00,0.0,WeatherDisplay:10.37,2013-12-22 05:47:00,
2013-12-21 23:52:00,22.1,18.3,29.99,ENE,59,0.0,0.0,85,0.00,OVC,,0.00,0.0,WeatherDisplay:10.37,2013-12-22 05:52:00,
2013-12-21 23:57:00,22.0,18.2,30.00,NE,44,0.0,0.0,85,0.00,OVC,,0.00,0.0,WeatherDisplay:10.37,2013-12-22 05:57:00,